Time;durP1;ratioP1;P1;durP2;ratioP2;P2;SDS_P1;SDS_P2;PMS_P1;PMS_P2;Temp;Humidity;BMP_temperature;BMP_pressure;BME280_temperature;BME280_humidity;BME280_pressure;Samples;Min_cycle;Max_cycle;Signal;HPM_P1;HPM_P2
2022/01/10 00:02:11;;;;;;;6.30;5.37;;;;;;;;;;5055759;28;20484;-71
2022/01/10 00:04:39;;;;;;;8.30;4.47;;;;;;;;;;5055170;28;20452;-72
2022/01/10 00:07:06;;;;;;;5.30;4.50;;;;;;;;;;5055449;28;20452;-71
2022/01/10 00:09:33;;;;;;;5.87;4.03;;;;;;;;;;5055367;28;20832;-71
2022/01/10 00:12:00;;;;;;;8.83;5.30;;;;;;;;;;5055542;28;20456;-71
2022/01/10 00:14:29;;;;;;;5.20;4.30;;;;;;;;;;5055070;28;20464;-71
2022/01/10 00:16:56;;;;;;;6.07;5.00;;;;;;;;;;5055173;28;20449;-71
2022/01/10 00:19:24;;;;;;;7.30;5.13;;;;;;;;;;5054963;28;20452;-71
2022/01/10 00:21:51;;;;;;;8.83;4.80;;;;;;;;;;5055261;28;20488;-71
2022/01/10 00:24:18;;;;;;;7.60;4.73;;;;;;;;;;5054976;28;20457;-71
2022/01/10 00:26:45;;;;;;;6.73;4.97;;;;;;;;;;5055190;28;20989;-71
2022/01/10 00:29:12;;;;;;;9.70;4.93;;;;;;;;;;5055028;28;20472;-71
2022/01/10 00:31:40;;;;;;;7.77;4.67;;;;;;;;;;5054928;28;20972;-71
2022/01/10 00:34:08;;;;;;;9.20;6.93;;;;;;;;;;5054836;28;20452;-71
2022/01/10 00:36:35;;;;;;;6.73;5.53;;;;;;;;;;5054815;28;20519;-71
2022/01/10 00:39:02;;;;;;;8.10;6.03;;;;;;;;;;5054140;28;20448;-71
2022/01/10 00:41:29;;;;;;;10.70;5.47;;;;;;;;;;5054783;28;20457;-71
2022/01/10 00:43:57;;;;;;;6.63;4.90;;;;;;;;;;5054775;28;20926;-72
2022/01/10 00:46:24;;;;;;;5.70;4.53;;;;;;;;;;5054782;28;20977;-71
2022/01/10 00:48:55;;;;;;;6.63;4.30;;;;;;;;;;5054854;28;20449;-71
2022/01/10 00:51:22;;;;;;;6.80;4.50;;;;;;;;;;5054811;28;20453;-71
2022/01/10 00:53:50;;;;;;;7.90;4.87;;;;;;;;;;5054461;28;20449;-71
2022/01/10 00:56:17;;;;;;;5.67;4.50;;;;;;;;;;5054589;28;20516;-71
2022/01/10 00:58:45;;;;;;;7.47;4.27;;;;;;;;;;5054501;28;20465;-71
2022/01/10 01:01:12;;;;;;;11.20;4.87;;;;;;;;;;5054532;28;20456;-71
2022/01/10 01:03:39;;;;;;;6.80;4.57;;;;;;;;;;5054117;28;20488;-71
2022/01/10 01:06:10;;;;;;;7.67;4.60;;;;;;;;;;5054377;28;20476;-71
2022/01/10 01:08:37;;;;;;;5.73;4.07;;;;;;;;;;5054532;28;20457;-71
2022/01/10 01:11:31;;;;;;;7.30;4.77;;;;;;;;;;5054314;28;20811;-71
2022/01/10 01:14:04;;;;;;;14.00;5.07;;;;;;;;;;5054174;28;20930;-71
2022/01/10 01:16:44;;;;;;;11.47;4.20;;;;;;;;;;5054129;28;20479;-71
2022/01/10 01:19:52;;;;;;;10.00;5.70;;;;;;;;;;5054232;28;20455;-71
2022/01/10 01:24:58;;;;;;;7.33;4.90;;;;;;;;;;5028156;28;20467;-71
2022/01/10 01:27:25;;;;;;;8.17;5.23;;;;;;;;;;5054104;28;20452;-71
2022/01/10 01:29:52;;;;;;;8.00;4.60;;;;;;;;;;5053700;28;20467;-71
2022/01/10 01:32:20;;;;;;;8.03;4.90;;;;;;;;;;5054017;28;20437;-71
2022/01/10 01:34:47;;;;;;;10.07;5.63;;;;;;;;;;5053499;28;20441;-71
2022/01/10 01:37:15;;;;;;;5.83;5.00;;;;;;;;;;5053474;28;20513;-71
2022/01/10 01:39:42;;;;;;;10.67;6.00;;;;;;;;;;5053840;28;20461;-71
2022/01/10 01:42:31;;;;;;;6.90;5.13;;;;;;;;;;5053659;28;20488;-71
2022/01/10 01:44:59;;;;;;;11.93;6.87;;;;;;;;;;5053515;28;20481;-71
2022/01/10 01:47:26;;;;;;;13.07;6.73;;;;;;;;;;5053844;28;21044;-71
2022/01/10 01:49:53;;;;;;;9.97;6.10;;;;;;;;;;5053007;28;20476;-71
2022/01/10 01:52:21;;;;;;;12.37;6.10;;;;;;;;;;5053518;28;20449;-71
2022/01/10 01:54:48;;;;;;;10.43;6.97;;;;;;;;;;5053078;28;20479;-71
2022/01/10 01:57:15;;;;;;;10.60;7.87;;;;;;;;;;5053512;28;20460;-71
2022/01/10 01:59:43;;;;;;;14.23;7.67;;;;;;;;;;5053467;28;20460;-71
2022/01/10 02:02:10;;;;;;;17.17;6.43;;;;;;;;;;5053402;28;20492;-71
2022/01/10 02:04:37;;;;;;;6.73;5.20;;;;;;;;;;5053532;28;20460;-71
2022/01/10 02:07:04;;;;;;;7.67;5.13;;;;;;;;;;5053342;28;20918;-72
2022/01/10 02:09:33;;;;;;;10.00;5.73;;;;;;;;;;5053196;28;20459;-71
2022/01/10 02:12:00;;;;;;;9.53;5.80;;;;;;;;;;5053243;28;20525;-71
2022/01/10 02:14:27;;;;;;;13.57;5.23;;;;;;;;;;5052858;28;20460;-71
2022/01/10 02:16:56;;;;;;;17.23;9.20;;;;;;;;;;5053206;28;20452;-71
2022/01/10 02:19:23;;;;;;;11.80;7.30;;;;;;;;;;5052831;28;20457;-71
2022/01/10 02:21:51;;;;;;;7.70;5.73;;;;;;;;;;5052929;28;20933;-71
2022/01/10 02:24:18;;;;;;;8.60;6.20;;;;;;;;;;5052850;28;20452;-71
2022/01/10 02:26:48;;;;;;;10.30;6.63;;;;;;;;;;5052954;28;20473;-71
2022/01/10 02:29:15;;;;;;;13.43;5.93;;;;;;;;;;5052865;28;20468;-71
2022/01/10 02:31:42;;;;;;;11.60;6.37;;;;;;;;;;5052944;28;20455;-71
2022/01/10 02:34:09;;;;;;;7.53;5.23;;;;;;;;;;5052728;28;20456;-71
2022/01/10 02:36:37;;;;;;;11.87;5.33;;;;;;;;;;5052712;28;20555;-71
2022/01/10 02:39:08;;;;;;;9.00;5.53;;;;;;;;;;5052404;28;20460;-71
2022/01/10 02:41:36;;;;;;;11.10;5.03;;;;;;;;;;5052795;28;20494;-71
2022/01/10 02:44:04;;;;;;;8.47;4.87;;;;;;;;;;5052634;28;20898;-71
2022/01/10 02:46:32;;;;;;;11.50;8.43;;;;;;;;;;5053051;28;20469;-71
2022/01/10 02:49:00;;;;;;;10.37;6.93;;;;;;;;;;5052800;28;20456;-71
2022/01/10 02:51:27;;;;;;;6.00;5.03;;;;;;;;;;5052839;28;20479;-71
2022/01/10 02:53:54;;;;;;;11.20;5.73;;;;;;;;;;5052632;28;20953;-71
2022/01/10 02:56:22;;;;;;;11.77;5.33;;;;;;;;;;5052829;28;20472;-71
2022/01/10 02:58:50;;;;;;;6.70;4.80;;;;;;;;;;5052914;28;20459;-71
2022/01/10 03:01:17;;;;;;;10.90;6.00;;;;;;;;;;5054901;28;20844;-71
2022/01/10 03:03:44;;;;;;;7.60;5.30;;;;;;;;;;5056343;28;20489;-71
2022/01/10 03:06:12;;;;;;;8.73;5.50;;;;;;;;;;5056611;28;20848;-71
2022/01/10 03:08:39;;;;;;;6.73;5.87;;;;;;;;;;5056648;28;20459;-71
2022/01/10 03:11:06;;;;;;;12.87;8.00;;;;;;;;;;5056726;28;20467;-71
2022/01/10 03:13:35;;;;;;;13.27;7.60;;;;;;;;;;5056419;28;20538;-71
2022/01/10 03:16:02;;;;;;;10.87;6.47;;;;;;;;;;5056452;28;20465;-71
2022/01/10 03:18:29;;;;;;;10.40;5.67;;;;;;;;;;5056552;28;20457;-71
2022/01/10 03:20:56;;;;;;;10.40;6.27;;;;;;;;;;5056644;28;20449;-71
2022/01/10 03:23:23;;;;;;;8.37;5.77;;;;;;;;;;5056288;28;20484;-72
2022/01/10 03:25:50;;;;;;;13.33;6.70;;;;;;;;;;5056297;28;20468;-71
2022/01/10 03:28:17;;;;;;;11.60;8.60;;;;;;;;;;5056143;28;20449;-72
2022/01/10 03:30:46;;;;;;;14.83;7.60;;;;;;;;;;5056201;28;20457;-71
2022/01/10 03:33:14;;;;;;;10.73;7.03;;;;;;;;;;5056323;28;20821;-71
2022/01/10 03:35:41;;;;;;;13.67;8.50;;;;;;;;;;5055839;28;20512;-71
2022/01/10 03:38:08;;;;;;;10.10;7.10;;;;;;;;;;5055728;28;20452;-71
2022/01/10 03:40:37;;;;;;;15.73;7.93;;;;;;;;;;5056096;28;20527;-71
2022/01/10 03:43:04;;;;;;;11.10;6.67;;;;;;;;;;5055864;28;20495;-71
2022/01/10 03:45:32;;;;;;;9.87;6.83;;;;;;;;;;5055762;28;20472;-71
2022/01/10 03:48:00;;;;;;;14.70;8.03;;;;;;;;;;5056106;28;20461;-71
2022/01/10 03:50:28;;;;;;;15.10;9.60;;;;;;;;;;5055969;28;20463;-71
2022/01/10 03:52:55;;;;;;;14.67;8.13;;;;;;;;;;5055791;28;20444;-71
2022/01/10 03:55:22;;;;;;;13.27;8.67;;;;;;;;;;5055474;28;20469;-71
2022/01/10 03:57:49;;;;;;;11.50;8.40;;;;;;;;;;5055645;28;20456;-71
2022/01/10 04:00:16;;;;;;;11.90;8.00;;;;;;;;;;5055815;28;20456;-71
2022/01/10 04:02:45;;;;;;;15.67;8.33;;;;;;;;;;5055449;28;20480;-71
2022/01/10 04:05:13;;;;;;;13.30;8.10;;;;;;;;;;5055387;28;20476;-71
2022/01/10 04:07:41;;;;;;;10.60;6.53;;;;;;;;;;5055494;28;20498;-71
2022/01/10 04:10:08;;;;;;;12.37;8.93;;;;;;;;;;5055487;28;20464;-71
2022/01/10 04:12:35;;;;;;;11.57;7.47;;;;;;;;;;5054666;28;20456;-71
2022/01/10 04:15:03;;;;;;;12.37;7.30;;;;;;;;;;5055227;28;21036;-71
2022/01/10 04:17:30;;;;;;;12.57;8.30;;;;;;;;;;5055371;28;20499;-71
2022/01/10 04:19:58;;;;;;;12.37;7.83;;;;;;;;;;5055429;28;20959;-71
2022/01/10 04:22:26;;;;;;;8.27;7.03;;;;;;;;;;5055192;28;20464;-71
2022/01/10 04:24:53;;;;;;;9.70;6.70;;;;;;;;;;5054906;28;20854;-71
2022/01/10 04:27:20;;;;;;;11.93;7.50;;;;;;;;;;5055144;28;20456;-70
2022/01/10 04:29:47;;;;;;;13.70;7.90;;;;;;;;;;5055137;28;20835;-71
2022/01/10 04:32:14;;;;;;;11.83;7.83;;;;;;;;;;5055226;28;20453;-70
2022/01/10 04:34:43;;;;;;;15.73;8.03;;;;;;;;;;5054833;28;20459;-71
2022/01/10 04:37:10;;;;;;;10.37;7.77;;;;;;;;;;5054670;28;20484;-71
2022/01/10 04:39:39;;;;;;;13.27;8.50;;;;;;;;;;5055074;28;20460;-70
2022/01/10 04:42:06;;;;;;;16.53;9.53;;;;;;;;;;5055173;28;20937;-70
2022/01/10 04:44:33;;;;;;;10.30;8.20;;;;;;;;;;5054511;28;20515;-70
2022/01/10 04:47:00;;;;;;;16.10;9.27;;;;;;;;;;5054932;28;20453;-70
2022/01/10 04:49:28;;;;;;;21.33;9.27;;;;;;;;;;5054787;28;20460;-70
2022/01/10 04:51:56;;;;;;;13.17;9.33;;;;;;;;;;5054697;28;20451;-70
2022/01/10 04:54:24;;;;;;;13.93;9.37;;;;;;;;;;5054553;28;20512;-70
2022/01/10 04:56:52;;;;;;;17.37;10.10;;;;;;;;;;5054700;28;20877;-70
2022/01/10 04:59:19;;;;;;;15.60;9.50;;;;;;;;;;5054679;28;20460;-70
2022/01/10 05:01:46;;;;;;;24.00;9.97;;;;;;;;;;5054512;28;20452;-70
2022/01/10 05:04:13;;;;;;;21.40;10.43;;;;;;;;;;5054203;28;20491;-70
2022/01/10 05:06:42;;;;;;;16.80;10.37;;;;;;;;;;5054170;28;20483;-70
2022/01/10 05:09:09;;;;;;;22.63;13.00;;;;;;;;;;5054537;28;20898;-70
2022/01/10 05:11:39;;;;;;;19.27;11.77;;;;;;;;;;5054258;28;20459;-70
2022/01/10 05:14:08;;;;;;;17.60;10.50;;;;;;;;;;5054201;28;20938;-70
2022/01/10 05:16:35;;;;;;;17.07;11.20;;;;;;;;;;5053927;28;20484;-70
2022/01/10 05:19:02;;;;;;;23.83;10.90;;;;;;;;;;5054339;28;20944;-70
2022/01/10 05:21:29;;;;;;;21.47;11.17;;;;;;;;;;5054043;28;20452;-70
2022/01/10 05:23:56;;;;;;;22.43;11.80;;;;;;;;;;5052859;28;21007;-70
2022/01/10 05:26:23;;;;;;;22.90;10.80;;;;;;;;;;5054073;28;20477;-70
2022/01/10 05:28:52;;;;;;;20.30;11.67;;;;;;;;;;5053941;28;20471;-70
2022/01/10 05:31:20;;;;;;;17.00;10.20;;;;;;;;;;5053926;28;20827;-70
2022/01/10 05:33:47;;;;;;;19.90;11.40;;;;;;;;;;5053677;28;20445;-71
2022/01/10 05:36:15;;;;;;;18.87;10.63;;;;;;;;;;5053922;28;20940;-70
2022/01/10 05:38:42;;;;;;;16.10;11.07;;;;;;;;;;5053509;28;20448;-70
2022/01/10 05:41:09;;;;;;;19.93;11.13;;;;;;;;;;5053926;28;20441;-70
2022/01/10 05:43:36;;;;;;;27.53;12.10;;;;;;;;;;5053517;28;21008;-71
2022/01/10 05:46:07;;;;;;;40.43;13.93;;;;;;;;;;5053582;28;20476;-70
2022/01/10 05:48:36;;;;;;;41.40;18.33;;;;;;;;;;5053641;28;20453;-71
2022/01/10 05:51:04;;;;;;;25.87;13.47;;;;;;;;;;5053690;28;20457;-70
2022/01/10 05:53:31;;;;;;;18.70;12.00;;;;;;;;;;5053323;28;20456;-70
2022/01/10 05:55:58;;;;;;;22.23;13.23;;;;;;;;;;5053540;28;20834;-70
2022/01/10 05:58:26;;;;;;;18.73;12.57;;;;;;;;;;5053356;28;20453;-70
2022/01/10 06:00:53;;;;;;;18.30;11.60;;;;;;;;;;5053455;28;20506;-70
2022/01/10 06:03:20;;;;;;;16.80;11.60;;;;;;;;;;5053406;28;20989;-70
2022/01/10 06:05:49;;;;;;;18.37;11.23;;;;;;;;;;5053042;28;20888;-70
2022/01/10 06:08:16;;;;;;;15.40;10.80;;;;;;;;;;5053291;28;20459;-70
2022/01/10 06:10:43;;;;;;;24.47;12.70;;;;;;;;;;5053208;28;20810;-70
2022/01/10 06:13:10;;;;;;;20.03;13.10;;;;;;;;;;5053203;28;20526;-70
2022/01/10 06:15:38;;;;;;;23.37;11.57;;;;;;;;;;5052915;28;20472;-70
2022/01/10 06:18:05;;;;;;;22.80;12.73;;;;;;;;;;5053229;28;20452;-70
2022/01/10 06:20:32;;;;;;;19.83;10.63;;;;;;;;;;5053158;28;20969;-70
2022/01/10 06:23:00;;;;;;;24.00;12.27;;;;;;;;;;5053175;28;20449;-70
2022/01/10 06:25:28;;;;;;;18.83;11.20;;;;;;;;;;5052605;28;20493;-70
2022/01/10 06:27:57;;;;;;;20.73;12.50;;;;;;;;;;5053190;28;20449;-70
2022/01/10 06:30:24;;;;;;;17.40;10.70;;;;;;;;;;5052917;28;20464;-70
2022/01/10 06:32:51;;;;;;;22.07;11.97;;;;;;;;;;5053045;28;20444;-70
2022/01/10 06:35:18;;;;;;;16.20;10.53;;;;;;;;;;5052380;28;20469;-70
2022/01/10 06:37:45;;;;;;;33.67;13.50;;;;;;;;;;5052566;28;20449;-70
2022/01/10 06:40:14;;;;;;;22.90;11.73;;;;;;;;;;5053092;28;20455;-70
2022/01/10 06:42:41;;;;;;;24.50;12.40;;;;;;;;;;5052855;28;20826;-70
2022/01/10 06:45:09;;;;;;;22.07;14.60;;;;;;;;;;5052470;28;20500;-70
2022/01/10 06:47:36;;;;;;;19.63;11.57;;;;;;;;;;5052826;28;20457;-70
2022/01/10 06:50:03;;;;;;;22.70;12.60;;;;;;;;;;5052891;28;20465;-70
2022/01/10 06:52:30;;;;;;;28.97;14.07;;;;;;;;;;5052712;28;20456;-70
2022/01/10 06:54:58;;;;;;;23.43;13.03;;;;;;;;;;5052776;28;20978;-70
2022/01/10 06:57:26;;;;;;;25.87;13.97;;;;;;;;;;5052735;28;20449;-70
2022/01/10 06:59:54;;;;;;;22.17;12.87;;;;;;;;;;5052788;28;20839;-70
2022/01/10 07:02:21;;;;;;;19.37;13.40;;;;;;;;;;5052692;28;20456;-70
2022/01/10 07:04:48;;;;;;;24.20;14.53;;;;;;;;;;5052353;28;20488;-70
2022/01/10 07:07:15;;;;;;;25.63;15.77;;;;;;;;;;5052661;28;20791;-70
2022/01/10 07:09:43;;;;;;;24.53;13.90;;;;;;;;;;5052675;28;20453;-70
2022/01/10 07:12:10;;;;;;;28.47;15.60;;;;;;;;;;5052783;28;20453;-70
2022/01/10 07:14:38;;;;;;;31.13;16.13;;;;;;;;;;5052230;28;20967;-70
2022/01/10 07:17:06;;;;;;;31.30;15.80;;;;;;;;;;5052565;28;20552;-70
2022/01/10 07:19:33;;;;;;;31.53;15.70;;;;;;;;;;5052383;28;20530;-70
2022/01/10 07:22:00;;;;;;;27.37;13.10;;;;;;;;;;5052595;28;20448;-70
2022/01/10 07:24:27;;;;;;;24.03;14.43;;;;;;;;;;5052162;28;20488;-70
2022/01/10 07:26:54;;;;;;;30.73;18.03;;;;;;;;;;5052643;28;20832;-70
2022/01/10 07:29:22;;;;;;;19.77;12.10;;;;;;;;;;5052499;28;20460;-70
2022/01/10 07:31:50;;;;;;;27.70;14.30;;;;;;;;;;5052624;28;20453;-70
2022/01/10 07:34:17;;;;;;;26.30;15.00;;;;;;;;;;5052177;28;20452;-70
2022/01/10 07:36:45;;;;;;;22.60;13.80;;;;;;;;;;5052366;28;20476;-70
2022/01/10 07:39:12;;;;;;;23.63;13.30;;;;;;;;;;5051848;28;20456;-70
2022/01/10 07:41:39;;;;;;;21.60;12.90;;;;;;;;;;5052264;28;20452;-70
2022/01/10 07:44:06;;;;;;;24.10;13.60;;;;;;;;;;5052077;28;20997;-70
2022/01/10 07:46:33;;;;;;;21.80;13.40;;;;;;;;;;5052223;28;20475;-70
2022/01/10 07:49:02;;;;;;;24.67;15.73;;;;;;;;;;5055381;28;20819;-70
2022/01/10 07:51:29;;;;;;;21.20;13.60;;;;;;;;;;5055726;28;20836;-70
2022/01/10 07:53:57;;;;;;;23.40;14.47;;;;;;;;;;5055686;28;20456;-71
2022/01/10 07:56:24;;;;;;;19.57;13.50;;;;;;;;;;5055444;28;20476;-71
2022/01/10 07:58:52;;;;;;;25.50;14.60;;;;;;;;;;5055467;28;20473;-70
2022/01/10 08:01:20;;;;;;;22.17;12.80;;;;;;;;;;5055509;28;20452;-71
2022/01/10 08:03:47;;;;;;;31.70;14.80;;;;;;;;;;5055219;28;20457;-70
2022/01/10 08:06:16;;;;;;;38.63;25.00;;;;;;;;;;5055607;28;20476;-70
2022/01/10 08:08:43;;;;;;;25.87;18.40;;;;;;;;;;5055462;28;20838;-70
2022/01/10 08:11:10;;;;;;;27.53;12.87;;;;;;;;;;5055564;28;20449;-70
2022/01/10 08:13:37;;;;;;;31.27;12.67;;;;;;;;;;5055369;28;20448;-71
2022/01/10 08:16:04;;;;;;;19.73;11.23;;;;;;;;;;5055347;28;20460;-70
2022/01/10 08:18:33;;;;;;;21.37;13.73;;;;;;;;;;5055384;28;20852;-70
2022/01/10 08:21:01;;;;;;;19.63;10.73;;;;;;;;;;5055312;28;20453;-70
2022/01/10 08:23:29;;;;;;;27.83;12.87;;;;;;;;;;5055005;28;20453;-70
2022/01/10 08:25:57;;;;;;;19.80;12.53;;;;;;;;;;5054998;28;20496;-70
2022/01/10 08:28:24;;;;;;;24.17;12.83;;;;;;;;;;5054985;28;20805;-71
2022/01/10 08:30:51;;;;;;;22.63;12.17;;;;;;;;;;5055126;28;20463;-71
2022/01/10 08:33:18;;;;;;;22.13;12.30;;;;;;;;;;5055270;28;20449;-70
2022/01/10 08:35:45;;;;;;;20.07;12.37;;;;;;;;;;5054751;28;20468;-70
2022/01/10 08:38:13;;;;;;;33.00;13.20;;;;;;;;;;5054786;28;20441;-70
2022/01/10 08:40:42;;;;;;;21.03;13.83;;;;;;;;;;5054942;28;20456;-70
2022/01/10 08:43:10;;;;;;;28.27;12.67;;;;;;;;;;5054797;28;20457;-70
2022/01/10 08:45:37;;;;;;;20.20;11.57;;;;;;;;;;5054281;28;20993;-71
2022/01/10 08:48:05;;;;;;;20.97;12.50;;;;;;;;;;5054824;28;20455;-71
2022/01/10 08:50:33;;;;;;;20.53;12.60;;;;;;;;;;5054808;28;20823;-71
2022/01/10 08:53:00;;;;;;;21.30;13.07;;;;;;;;;;5054433;28;20961;-71
2022/01/10 08:55:27;;;;;;;22.77;13.57;;;;;;;;;;5053840;28;20472;-71
2022/01/10 08:57:56;;;;;;;18.63;12.27;;;;;;;;;;5054498;28;20460;-70
2022/01/10 09:00:23;;;;;;;26.00;13.00;;;;;;;;;;5054513;28;20961;-71
2022/01/10 09:02:50;;;;;;;15.13;11.70;;;;;;;;;;5054797;28;20458;-70
2022/01/10 09:05:17;;;;;;;22.13;11.93;;;;;;;;;;5054318;28;20981;-71
2022/01/10 09:07:44;;;;;;;21.30;13.20;;;;;;;;;;5054644;28;20456;-70
2022/01/10 09:10:11;;;;;;;18.13;11.50;;;;;;;;;;5054458;28;20972;-71
2022/01/10 09:12:39;;;;;;;17.30;10.77;;;;;;;;;;5054296;28;20452;-71
2022/01/10 09:15:08;;;;;;;18.03;12.90;;;;;;;;;;5053946;28;20476;-70
2022/01/10 09:17:35;;;;;;;17.43;11.43;;;;;;;;;;5054207;28;20472;-71
2022/01/10 09:20:02;;;;;;;23.73;14.97;;;;;;;;;;5054166;28;20551;-71
2022/01/10 09:22:29;;;;;;;20.13;12.87;;;;;;;;;;5054021;28;20453;-71
2022/01/10 09:24:56;;;;;;;27.90;15.33;;;;;;;;;;5053875;28;20993;-71
2022/01/10 09:27:23;;;;;;;23.00;14.57;;;;;;;;;;5053944;28;20468;-71
2022/01/10 09:29:51;;;;;;;25.27;13.07;;;;;;;;;;5053975;28;20822;-71
2022/01/10 09:32:19;;;;;;;21.03;11.77;;;;;;;;;;5054055;28;20453;-71
2022/01/10 09:34:46;;;;;;;18.30;11.10;;;;;;;;;;5053630;28;20456;-71
2022/01/10 09:37:13;;;;;;;23.83;13.00;;;;;;;;;;5053904;28;20459;-71
2022/01/10 09:39:40;;;;;;;20.80;12.07;;;;;;;;;;5053818;28;20453;-71
2022/01/10 09:42:09;;;;;;;17.90;10.70;;;;;;;;;;5053836;28;20459;-71
2022/01/10 09:44:37;;;;;;;26.57;13.00;;;;;;;;;;5053348;28;20480;-71
2022/01/10 09:47:04;;;;;;;16.47;11.17;;;;;;;;;;5053721;28;20813;-71
2022/01/10 09:49:32;;;;;;;26.33;12.37;;;;;;;;;;5053699;28;20476;-71
2022/01/10 09:51:59;;;;;;;24.73;13.00;;;;;;;;;;5053627;28;20556;-71
2022/01/10 09:54:27;;;;;;;18.70;11.90;;;;;;;;;;5053238;28;20464;-71
2022/01/10 09:56:54;;;;;;;24.80;15.37;;;;;;;;;;5053690;28;20811;-71
2022/01/10 09:59:21;;;;;;;22.40;13.70;;;;;;;;;;5053760;28;20463;-71
2022/01/10 10:01:50;;;;;;;18.03;12.30;;;;;;;;;;5053415;28;20956;-71
2022/01/10 10:04:17;;;;;;;19.53;10.70;;;;;;;;;;5053014;28;20942;-72
2022/01/10 10:06:46;;;;;;;21.57;10.97;;;;;;;;;;5053192;28;20838;-71
2022/01/10 10:09:13;;;;;;;23.90;13.77;;;;;;;;;;5053387;28;20453;-71
2022/01/10 10:11:42;;;;;;;21.93;12.20;;;;;;;;;;5052720;28;20457;-71
2022/01/10 10:14:10;;;;;;;17.80;12.50;;;;;;;;;;5053166;28;20869;-71
2022/01/10 10:16:39;;;;;;;20.20;10.77;;;;;;;;;;5053047;28;20476;-71
2022/01/10 10:19:06;;;;;;;22.10;12.47;;;;;;;;;;5053312;28;20456;-71
2022/01/10 10:21:34;;;;;;;18.97;11.67;;;;;;;;;;5053089;28;20449;-71
2022/01/10 10:24:05;;;;;;;21.73;12.50;;;;;;;;;;5052945;28;20463;-71
2022/01/10 10:26:32;;;;;;;20.03;12.30;;;;;;;;;;5052964;28;20496;-71
2022/01/10 10:29:00;;;;;;;15.97;11.47;;;;;;;;;;5052947;28;20468;-71
2022/01/10 10:31:28;;;;;;;20.10;11.97;;;;;;;;;;5052937;28;20445;-71
2022/01/10 10:33:56;;;;;;;21.33;11.23;;;;;;;;;;5052902;28;20457;-71
2022/01/10 10:36:25;;;;;;;17.90;11.33;;;;;;;;;;5053043;28;20473;-71
2022/01/10 10:38:52;;;;;;;24.47;10.70;;;;;;;;;;5052670;28;20523;-71
2022/01/10 10:41:21;;;;;;;19.50;12.47;;;;;;;;;;5053031;28;20437;-71
2022/01/10 10:43:50;;;;;;;20.40;11.33;;;;;;;;;;5053127;28;20929;-72
2022/01/10 10:46:18;;;;;;;17.83;12.27;;;;;;;;;;5052770;28;20496;-71
2022/01/10 10:48:47;;;;;;;19.67;12.77;;;;;;;;;;5052906;28;20547;-71
2022/01/10 10:51:14;;;;;;;28.97;15.30;;;;;;;;;;5053049;28;20462;-71
2022/01/10 10:53:41;;;;;;;19.13;13.03;;;;;;;;;;5052553;28;20452;-72
2022/01/10 10:56:09;;;;;;;23.63;11.70;;;;;;;;;;5052988;28;20815;-71
2022/01/10 10:58:39;;;;;;;15.23;11.20;;;;;;;;;;5052657;28;20453;-71
2022/01/10 11:01:06;;;;;;;22.27;12.50;;;;;;;;;;5052820;28;20456;-71
2022/01/10 11:03:34;;;;;;;17.70;11.17;;;;;;;;;;5052638;28;20453;-71
2022/01/10 11:06:04;;;;;;;19.90;10.57;;;;;;;;;;5052521;28;20488;-71
2022/01/10 11:08:32;;;;;;;17.00;10.80;;;;;;;;;;5052622;28;20452;-71
2022/01/10 11:11:01;;;;;;;18.53;10.80;;;;;;;;;;5052340;28;20453;-71
2022/01/10 11:13:28;;;;;;;23.70;13.33;;;;;;;;;;5052171;28;20452;-71
2022/01/10 11:15:57;;;;;;;16.53;11.57;;;;;;;;;;5052122;28;20473;-71
2022/01/10 11:18:25;;;;;;;22.13;11.90;;;;;;;;;;5052707;28;20467;-71
2022/01/10 11:20:52;;;;;;;17.47;11.70;;;;;;;;;;5052594;28;20445;-71
2022/01/10 11:23:19;;;;;;;20.13;12.77;;;;;;;;;;5056342;28;20452;-71
2022/01/10 11:25:46;;;;;;;21.73;12.13;;;;;;;;;;5056046;28;20484;-71
2022/01/10 11:28:22;;;;;;;19.60;12.23;;;;;;;;;;5056434;28;20452;-71
2022/01/10 11:30:51;;;;;;;23.80;12.23;;;;;;;;;;5056336;28;20463;-71
2022/01/10 11:33:21;;;;;;;20.50;14.00;;;;;;;;;;5056182;28;20543;-71
2022/01/10 11:35:49;;;;;;;19.07;12.20;;;;;;;;;;5055812;28;20473;-71
2022/01/10 11:38:21;;;;;;;17.83;11.17;;;;;;;;;;5055895;28;20810;-71
2022/01/10 11:40:48;;;;;;;17.67;10.13;;;;;;;;;;5056024;28;20453;-71
2022/01/10 11:43:29;;;;;;;23.00;12.80;;;;;;;;;;5056239;28;20448;-70
2022/01/10 11:46:07;;;;;;;28.50;14.50;;;;;;;;;;5054472;28;20499;-71
2022/01/10 11:48:46;;;;;;;28.43;12.20;;;;;;;;;;5055008;28;20461;-71
2022/01/10 11:51:14;;;;;;;27.33;13.80;;;;;;;;;;5055796;28;20459;-71
2022/01/10 11:53:42;;;;;;;19.47;10.50;;;;;;;;;;5055919;28;20456;-71
2022/01/10 11:56:20;;;;;;;17.03;10.90;;;;;;;;;;5055782;28;20830;-70
2022/01/10 11:59:02;;;;;;;18.30;10.70;;;;;;;;;;5054799;28;20967;-71
2022/01/10 12:01:34;;;;;;;22.20;11.13;;;;;;;;;;5055526;28;20448;-71
2022/01/10 12:04:02;;;;;;;18.17;11.03;;;;;;;;;;5055711;28;20502;-71
2022/01/10 12:06:30;;;;;;;21.33;11.33;;;;;;;;;;5055388;28;20496;-71
2022/01/10 12:08:57;;;;;;;19.03;11.90;;;;;;;;;;5055889;28;20452;-71
2022/01/10 12:11:25;;;;;;;23.17;12.70;;;;;;;;;;5055480;28;20453;-71
2022/01/10 12:13:53;;;;;;;25.03;13.40;;;;;;;;;;5055219;28;20547;-72
2022/01/10 12:16:20;;;;;;;29.13;12.90;;;;;;;;;;5055298;28;20576;-71
2022/01/10 12:18:47;;;;;;;18.97;12.73;;;;;;;;;;5055284;28;20453;-70
2022/01/10 12:21:16;;;;;;;24.00;13.37;;;;;;;;;;5055052;28;20437;-70
2022/01/10 12:23:43;;;;;;;22.70;14.17;;;;;;;;;;5054950;28;20452;-71
2022/01/10 12:26:11;;;;;;;26.93;14.43;;;;;;;;;;5054615;28;20489;-71
2022/01/10 12:28:38;;;;;;;27.43;15.80;;;;;;;;;;5061754;28;20827;-71
2022/01/10 12:31:06;;;;;;;24.77;14.67;;;;;;;;;;5074471;28;20493;-71
2022/01/10 12:33:33;;;;;;;22.90;13.90;;;;;;;;;;5070993;28;20448;-71
2022/01/10 12:36:02;;;;;;;22.37;12.40;;;;;;;;;;5074548;28;20550;-71
2022/01/10 12:38:30;;;;;;;17.77;12.97;;;;;;;;;;5074348;28;20505;-71
2022/01/10 12:40:57;;;;;;;24.53;13.90;;;;;;;;;;5074982;28;20452;-71
2022/01/10 12:43:25;;;;;;;26.13;13.70;;;;;;;;;;5075018;28;20795;-71
2022/01/10 12:45:52;;;;;;;23.57;14.00;;;;;;;;;;5074943;28;20488;-71
2022/01/10 12:48:19;;;;;;;18.90;12.27;;;;;;;;;;5074957;28;20921;-70
2022/01/10 12:50:48;;;;;;;25.07;11.97;;;;;;;;;;5074821;28;20456;-71
2022/01/10 12:53:16;;;;;;;19.00;11.90;;;;;;;;;;5074977;28;20538;-71
2022/01/10 12:55:44;;;;;;;21.37;12.27;;;;;;;;;;5074034;28;20464;-71
2022/01/10 12:58:13;;;;;;;21.67;10.80;;;;;;;;;;5074762;28;20463;-71
2022/01/10 13:00:41;;;;;;;19.00;11.83;;;;;;;;;;5074261;28;20462;-71
2022/01/10 13:03:08;;;;;;;19.77;10.80;;;;;;;;;;5074566;28;20451;-71
2022/01/10 13:05:36;;;;;;;18.50;12.00;;;;;;;;;;5074112;28;20492;-71
2022/01/10 13:08:04;;;;;;;30.80;20.37;;;;;;;;;;5074580;28;20819;-71
2022/01/10 13:10:33;;;;;;;26.53;14.90;;;;;;;;;;5074433;28;20456;-71
2022/01/10 13:13:02;;;;;;;20.00;11.77;;;;;;;;;;5074469;28;20451;-71
2022/01/10 13:15:33;;;;;;;15.77;10.33;;;;;;;;;;5071002;28;20488;-72
2022/01/10 13:18:01;;;;;;;20.20;11.20;;;;;;;;;;5072954;28;20455;-71
2022/01/10 13:20:29;;;;;;;22.33;11.20;;;;;;;;;;5072662;28;20456;-72
2022/01/10 13:23:01;;;;;;;27.37;17.23;;;;;;;;;;5072790;28;20451;-72
2022/01/10 13:25:28;;;;;;;18.23;10.90;;;;;;;;;;5072230;28;20506;-72
2022/01/10 13:28:00;;;;;;;17.93;11.07;;;;;;;;;;5072589;28;20458;-72
2022/01/10 13:30:35;;;;;;;20.53;11.90;;;;;;;;;;5072276;28;20460;-72
2022/01/10 13:33:04;;;;;;;16.50;10.57;;;;;;;;;;5072942;28;20467;-71
2022/01/10 13:35:32;;;;;;;16.77;10.00;;;;;;;;;;5072114;28;20468;-72
2022/01/10 13:38:01;;;;;;;20.47;10.57;;;;;;;;;;5072485;28;20447;-72
2022/01/10 13:40:29;;;;;;;16.03;9.97;;;;;;;;;;5072602;28;20458;-72
2022/01/10 13:43:03;;;;;;;19.63;10.93;;;;;;;;;;5072633;28;20459;-72
2022/01/10 13:45:41;;;;;;;20.63;9.77;;;;;;;;;;5071054;28;20474;-71
2022/01/10 13:48:09;;;;;;;17.10;10.30;;;;;;;;;;5071256;28;20534;-72
2022/01/10 13:50:36;;;;;;;14.93;10.00;;;;;;;;;;5071670;28;20964;-71
2022/01/10 13:53:05;;;;;;;15.57;10.17;;;;;;;;;;5072190;28;20494;-71
2022/01/10 13:55:32;;;;;;;18.13;9.07;;;;;;;;;;5071647;28;20467;-72
2022/01/10 13:57:59;;;;;;;16.83;9.97;;;;;;;;;;5072101;28;20458;-72
2022/01/10 14:00:28;;;;;;;16.40;9.77;;;;;;;;;;5071640;28;20458;-72
2022/01/10 14:02:57;;;;;;;18.10;10.63;;;;;;;;;;5072031;28;20956;-71
2022/01/10 14:05:26;;;;;;;15.20;9.53;;;;;;;;;;5071652;28;20496;-71
2022/01/10 14:07:53;;;;;;;16.00;10.10;;;;;;;;;;5071739;28;20537;-71
2022/01/10 14:10:21;;;;;;;18.87;9.40;;;;;;;;;;5071890;28;20957;-71
2022/01/10 14:12:48;;;;;;;24.17;10.20;;;;;;;;;;5071590;28;20491;-71
2022/01/10 14:15:15;;;;;;;19.53;10.53;;;;;;;;;;5071212;28;20482;-71
2022/01/10 14:17:42;;;;;;;17.40;10.57;;;;;;;;;;5071737;28;20902;-72
2022/01/10 14:20:13;;;;;;;18.30;11.47;;;;;;;;;;5071749;28;20467;-71
2022/01/10 14:22:40;;;;;;;19.90;10.70;;;;;;;;;;5071381;28;20456;-72
2022/01/10 14:25:08;;;;;;;16.10;9.70;;;;;;;;;;5071679;28;20472;-71
2022/01/10 14:27:35;;;;;;;17.37;9.07;;;;;;;;;;5071556;28;20523;-71
2022/01/10 14:30:02;;;;;;;34.83;12.40;;;;;;;;;;5071518;28;20479;-71
2022/01/10 14:32:29;;;;;;;23.33;12.00;;;;;;;;;;5071522;28;20455;-71